sensor_id;sensor_type;location;lat;lon;timestamp;temperature;humidity
38464;DHT22;24243;51.956;5.902;2022-09-12T00:01:58;23.70;53.80
38464;DHT22;24243;51.956;5.902;2022-09-12T00:04:24;23.70;53.80
38464;DHT22;24243;51.956;5.902;2022-09-12T00:06:51;23.70;53.80
38464;DHT22;24243;51.956;5.902;2022-09-12T00:09:17;23.70;53.80
38464;DHT22;24243;51.956;5.902;2022-09-12T00:11:43;23.80;53.80
38464;DHT22;24243;51.956;5.902;2022-09-12T00:14:10;23.70;53.80
38464;DHT22;24243;51.956;5.902;2022-09-12T00:16:37;23.80;53.80
38464;DHT22;24243;51.956;5.902;2022-09-12T00:19:03;23.70;53.80
38464;DHT22;24243;51.956;5.902;2022-09-12T00:21:29;23.70;53.80
38464;DHT22;24243;51.956;5.902;2022-09-12T00:23:56;23.70;53.80
38464;DHT22;24243;51.956;5.902;2022-09-12T00:26:22;23.70;53.80
38464;DHT22;24243;51.956;5.902;2022-09-12T00:28:48;23.70;53.80
38464;DHT22;24243;51.956;5.902;2022-09-12T00:31:19;23.70;53.80
38464;DHT22;24243;51.956;5.902;2022-09-12T00:33:45;23.70;53.80
38464;DHT22;24243;51.956;5.902;2022-09-12T00:36:13;23.70;53.80
38464;DHT22;24243;51.956;5.902;2022-09-12T00:38:39;23.70;53.70
38464;DHT22;24243;51.956;5.902;2022-09-12T00:41:07;23.70;53.70
38464;DHT22;24243;51.956;5.902;2022-09-12T00:43:39;23.70;53.70
38464;DHT22;24243;51.956;5.902;2022-09-12T00:51:51;23.70;53.70
38464;DHT22;24243;51.956;5.902;2022-09-12T00:54:20;23.70;53.70
38464;DHT22;24243;51.956;5.902;2022-09-12T00:56:46;23.70;53.70
38464;DHT22;24243;51.956;5.902;2022-09-12T00:59:14;23.70;53.70
38464;DHT22;24243;51.956;5.902;2022-09-12T01:01:41;23.70;53.70
38464;DHT22;24243;51.956;5.902;2022-09-12T01:04:08;23.70;53.70
38464;DHT22;24243;51.956;5.902;2022-09-12T01:06:35;23.60;53.60
38464;DHT22;24243;51.956;5.902;2022-09-12T01:09:02;23.60;53.60
38464;DHT22;24243;51.956;5.902;2022-09-12T01:11:33;23.70;53.70
38464;DHT22;24243;51.956;5.902;2022-09-12T01:14:00;23.70;53.70
38464;DHT22;24243;51.956;5.902;2022-09-12T01:16:26;23.60;53.60
38464;DHT22;24243;51.956;5.902;2022-09-12T01:18:54;23.60;53.60
38464;DHT22;24243;51.956;5.902;2022-09-12T01:26:48;23.60;53.60
38464;DHT22;24243;51.956;5.902;2022-09-12T01:29:24;23.60;53.60
38464;DHT22;24243;51.956;5.902;2022-09-12T01:31:58;23.60;53.60
38464;DHT22;24243;51.956;5.902;2022-09-12T01:34:37;23.60;53.60
38464;DHT22;24243;51.956;5.902;2022-09-12T01:47:10;23.60;53.60
38464;DHT22;24243;51.956;5.902;2022-09-12T01:49:40;23.60;53.60
38464;DHT22;24243;51.956;5.902;2022-09-12T01:55:15;23.60;53.60
38464;DHT22;24243;51.956;5.902;2022-09-12T01:57:51;23.60;53.60
38464;DHT22;24243;51.956;5.902;2022-09-12T02:00:18;23.60;53.60
38464;DHT22;24243;51.956;5.902;2022-09-12T02:02:57;23.60;53.60
38464;DHT22;24243;51.956;5.902;2022-09-12T02:05:31;23.60;53.60
38464;DHT22;24243;51.956;5.902;2022-09-12T02:08:02;23.60;53.60
38464;DHT22;24243;51.956;5.902;2022-09-12T02:10:30;23.60;53.60
38464;DHT22;24243;51.956;5.902;2022-09-12T02:13:08;23.50;53.60
38464;DHT22;24243;51.956;5.902;2022-09-12T02:15:37;23.60;53.60
38464;DHT22;24243;51.956;5.902;2022-09-12T02:18:04;23.60;53.60
38464;DHT22;24243;51.956;5.902;2022-09-12T02:20:33;23.60;53.60
38464;DHT22;24243;51.956;5.902;2022-09-12T02:23:00;23.50;53.60
38464;DHT22;24243;51.956;5.902;2022-09-12T02:25:27;23.50;53.60
38464;DHT22;24243;51.956;5.902;2022-09-12T02:28:03;23.50;53.60
38464;DHT22;24243;51.956;5.902;2022-09-12T02:30:33;23.50;53.60
38464;DHT22;24243;51.956;5.902;2022-09-12T02:33:05;23.50;53.60
38464;DHT22;24243;51.956;5.902;2022-09-12T02:40:25;23.50;53.50
38464;DHT22;24243;51.956;5.902;2022-09-12T02:42:51;23.50;53.50
38464;DHT22;24243;51.956;5.902;2022-09-12T02:45:16;23.50;53.50
38464;DHT22;24243;51.956;5.902;2022-09-12T02:50:14;23.50;53.50
38464;DHT22;24243;51.956;5.902;2022-09-12T02:52:39;23.50;53.50
38464;DHT22;24243;51.956;5.902;2022-09-12T02:55:05;23.50;53.50
38464;DHT22;24243;51.956;5.902;2022-09-12T02:57:31;23.50;53.50
38464;DHT22;24243;51.956;5.902;2022-09-12T02:59:57;23.50;53.50
38464;DHT22;24243;51.956;5.902;2022-09-12T03:02:45;23.50;53.50
38464;DHT22;24243;51.956;5.902;2022-09-12T03:12:45;23.50;53.50
38464;DHT22;24243;51.956;5.902;2022-09-12T03:17:45;23.50;53.50
38464;DHT22;24243;51.956;5.902;2022-09-12T03:23:04;23.40;53.40
38464;DHT22;24243;51.956;5.902;2022-09-12T03:25:35;23.50;53.50
38464;DHT22;24243;51.956;5.902;2022-09-12T03:28:10;23.50;53.50
38464;DHT22;24243;51.956;5.902;2022-09-12T03:30:40;23.40;53.40
38464;DHT22;24243;51.956;5.902;2022-09-12T03:33:09;23.40;53.40
38464;DHT22;24243;51.956;5.902;2022-09-12T03:35:35;23.40;53.40
38464;DHT22;24243;51.956;5.902;2022-09-12T03:38:00;23.40;53.40
38464;DHT22;24243;51.956;5.902;2022-09-12T03:40:26;23.40;53.40
38464;DHT22;24243;51.956;5.902;2022-09-12T03:42:51;23.40;53.40
38464;DHT22;24243;51.956;5.902;2022-09-12T03:45:17;23.40;53.40
38464;DHT22;24243;51.956;5.902;2022-09-12T03:47:42;23.40;53.40
38464;DHT22;24243;51.956;5.902;2022-09-12T03:50:08;23.40;53.40
38464;DHT22;24243;51.956;5.902;2022-09-12T03:52:34;23.50;53.50
38464;DHT22;24243;51.956;5.902;2022-09-12T03:54:59;23.40;53.40
38464;DHT22;24243;51.956;5.902;2022-09-12T03:57:25;23.40;53.40
38464;DHT22;24243;51.956;5.902;2022-09-12T03:59:50;23.40;53.40
38464;DHT22;24243;51.956;5.902;2022-09-12T04:02:16;23.40;53.40
38464;DHT22;24243;51.956;5.902;2022-09-12T04:04:42;23.40;53.40
38464;DHT22;24243;51.956;5.902;2022-09-12T04:07:10;23.40;53.40
38464;DHT22;24243;51.956;5.902;2022-09-12T04:09:36;23.40;53.40
38464;DHT22;24243;51.956;5.902;2022-09-12T04:12:02;23.40;53.50
38464;DHT22;24243;51.956;5.902;2022-09-12T04:14:27;23.40;53.40
38464;DHT22;24243;51.956;5.902;2022-09-12T04:16:53;23.40;53.50
38464;DHT22;24243;51.956;5.902;2022-09-12T04:19:19;23.40;53.50
38464;DHT22;24243;51.956;5.902;2022-09-12T04:21:44;23.40;53.50
38464;DHT22;24243;51.956;5.902;2022-09-12T04:24:10;23.40;53.40
38464;DHT22;24243;51.956;5.902;2022-09-12T04:26:36;23.40;53.50
38464;DHT22;24243;51.956;5.902;2022-09-12T04:29:02;23.40;53.40
38464;DHT22;24243;51.956;5.902;2022-09-12T04:31:27;23.40;53.50
38464;DHT22;24243;51.956;5.902;2022-09-12T04:33:57;23.40;53.50
38464;DHT22;24243;51.956;5.902;2022-09-12T04:36:23;23.40;53.50
38464;DHT22;24243;51.956;5.902;2022-09-12T04:38:49;23.40;53.50
38464;DHT22;24243;51.956;5.902;2022-09-12T04:41:16;23.40;53.50
38464;DHT22;24243;51.956;5.902;2022-09-12T04:43:42;23.40;53.60
38464;DHT22;24243;51.956;5.902;2022-09-12T04:46:11;23.40;53.60
38464;DHT22;24243;51.956;5.902;2022-09-12T04:48:37;23.40;53.60
38464;DHT22;24243;51.956;5.902;2022-09-12T04:51:07;23.40;53.60
38464;DHT22;24243;51.956;5.902;2022-09-12T04:53:33;23.40;53.60
38464;DHT22;24243;51.956;5.902;2022-09-12T04:56:05;23.40;53.60
38464;DHT22;24243;51.956;5.902;2022-09-12T04:58:31;23.40;53.60
38464;DHT22;24243;51.956;5.902;2022-09-12T05:01:07;23.40;53.60
38464;DHT22;24243;51.956;5.902;2022-09-12T05:03:33;23.40;53.60
38464;DHT22;24243;51.956;5.902;2022-09-12T05:06:02;23.40;53.60
38464;DHT22;24243;51.956;5.902;2022-09-12T05:08:28;23.40;53.60
38464;DHT22;24243;51.956;5.902;2022-09-12T05:10:54;23.30;53.60
38464;DHT22;24243;51.956;5.902;2022-09-12T05:13:19;23.40;53.60
38464;DHT22;24243;51.956;5.902;2022-09-12T05:15:53;23.30;53.60
38464;DHT22;24243;51.956;5.902;2022-09-12T05:18:19;23.30;53.60
38464;DHT22;24243;51.956;5.902;2022-09-12T05:20:45;23.30;53.60
38464;DHT22;24243;51.956;5.902;2022-09-12T05:23:11;23.10;53.80
38464;DHT22;24243;51.956;5.902;2022-09-12T05:25:36;22.90;53.90
38464;DHT22;24243;51.956;5.902;2022-09-12T05:28:02;22.80;54.20
38464;DHT22;24243;51.956;5.902;2022-09-12T05:30:27;22.70;54.40
38464;DHT22;24243;51.956;5.902;2022-09-12T05:32:53;22.50;54.60
38464;DHT22;24243;51.956;5.902;2022-09-12T05:35:18;22.40;54.80
38464;DHT22;24243;51.956;5.902;2022-09-12T05:37:44;22.30;54.90
38464;DHT22;24243;51.956;5.902;2022-09-12T05:40:10;22.20;55.10
38464;DHT22;24243;51.956;5.902;2022-09-12T05:42:35;22.10;55.20
38464;DHT22;24243;51.956;5.902;2022-09-12T05:45:01;22.10;55.30
38464;DHT22;24243;51.956;5.902;2022-09-12T05:47:26;22.00;55.40
38464;DHT22;24243;51.956;5.902;2022-09-12T05:49:52;21.90;55.50
38464;DHT22;24243;51.956;5.902;2022-09-12T05:52:18;21.90;55.50
38464;DHT22;24243;51.956;5.902;2022-09-12T05:54:44;22.00;55.40
38464;DHT22;24243;51.956;5.902;2022-09-12T05:57:11;22.10;55.30
38464;DHT22;24243;51.956;5.902;2022-09-12T05:59:37;22.10;55.10
38464;DHT22;24243;51.956;5.902;2022-09-12T06:02:02;22.10;54.90
38464;DHT22;24243;51.956;5.902;2022-09-12T06:04:28;22.20;54.80
38464;DHT22;24243;51.956;5.902;2022-09-12T06:06:54;22.30;54.80
38464;DHT22;24243;51.956;5.902;2022-09-12T06:09:19;22.30;54.70
38464;DHT22;24243;51.956;5.902;2022-09-12T06:11:45;22.30;54.80
38464;DHT22;24243;51.956;5.902;2022-09-12T06:14:11;22.20;54.80
38464;DHT22;24243;51.956;5.902;2022-09-12T06:16:37;22.10;55.60
38464;DHT22;24243;51.956;5.902;2022-09-12T06:19:05;22.00;55.20
38464;DHT22;24243;51.956;5.902;2022-09-12T06:21:31;21.90;55.30
38464;DHT22;24243;51.956;5.902;2022-09-12T06:23:58;21.80;55.50
38464;DHT22;24243;51.956;5.902;2022-09-12T06:26:24;21.80;55.60
38464;DHT22;24243;51.956;5.902;2022-09-12T06:28:50;21.70;55.60
38464;DHT22;24243;51.956;5.902;2022-09-12T06:31:18;21.70;55.80
38464;DHT22;24243;51.956;5.902;2022-09-12T06:33:45;21.70;55.90
38464;DHT22;24243;51.956;5.902;2022-09-12T06:36:21;21.60;55.90
38464;DHT22;24243;51.956;5.902;2022-09-12T06:38:47;21.60;56.00
38464;DHT22;24243;51.956;5.902;2022-09-12T06:41:17;21.50;56.10
38464;DHT22;24243;51.956;5.902;2022-09-12T06:43:43;21.50;56.10
38464;DHT22;24243;51.956;5.902;2022-09-12T06:46:09;21.50;56.20
38464;DHT22;24243;51.956;5.902;2022-09-12T06:48:35;21.40;56.30
38464;DHT22;24243;51.956;5.902;2022-09-12T06:51:08;21.40;56.30
38464;DHT22;24243;51.956;5.902;2022-09-12T06:53:34;21.40;56.40
38464;DHT22;24243;51.956;5.902;2022-09-12T06:56:10;21.30;56.50
38464;DHT22;24243;51.956;5.902;2022-09-12T06:58:36;21.30;56.50
38464;DHT22;24243;51.956;5.902;2022-09-12T07:03:30;21.30;56.60
38464;DHT22;24243;51.956;5.902;2022-09-12T07:05:56;21.20;56.60
38464;DHT22;24243;51.956;5.902;2022-09-12T07:08:22;21.20;56.60
38464;DHT22;24243;51.956;5.902;2022-09-12T07:10:47;21.40;56.50
38464;DHT22;24243;51.956;5.902;2022-09-12T07:13:13;21.70;56.10
38464;DHT22;24243;51.956;5.902;2022-09-12T07:15:38;22.10;55.70
38464;DHT22;24243;51.956;5.902;2022-09-12T07:18:04;22.40;55.10
38464;DHT22;24243;51.956;5.902;2022-09-12T07:20:30;22.80;54.40
38464;DHT22;24243;51.956;5.902;2022-09-12T07:22:57;23.20;53.80
38464;DHT22;24243;51.956;5.902;2022-09-12T07:25:23;23.50;53.30
38464;DHT22;24243;51.956;5.902;2022-09-12T07:27:48;23.60;53.00
38464;DHT22;24243;51.956;5.902;2022-09-12T07:30:14;23.60;52.90
38464;DHT22;24243;51.956;5.902;2022-09-12T07:32:40;23.50;53.00
38464;DHT22;24243;51.956;5.902;2022-09-12T07:35:06;23.40;53.20
38464;DHT22;24243;51.956;5.902;2022-09-12T07:37:31;23.20;53.50
38464;DHT22;24243;51.956;5.902;2022-09-12T07:39:57;23.20;53.70
38464;DHT22;24243;51.956;5.902;2022-09-12T07:42:23;23.30;53.60
38464;DHT22;24243;51.956;5.902;2022-09-12T07:44:49;23.60;53.30
38464;DHT22;24243;51.956;5.902;2022-09-12T07:47:16;23.80;52.90
38464;DHT22;24243;51.956;5.902;2022-09-12T07:49:42;24.00;53.20
38464;DHT22;24243;51.956;5.902;2022-09-12T07:52:08;24.20;52.20
38464;DHT22;24243;51.956;5.902;2022-09-12T07:54:34;24.40;51.80
38464;DHT22;24243;51.956;5.902;2022-09-12T07:56:59;24.60;51.50
38464;DHT22;24243;51.956;5.902;2022-09-12T07:59:25;24.60;51.30
38464;DHT22;24243;51.956;5.902;2022-09-12T08:01:51;24.60;51.50
38464;DHT22;24243;51.956;5.902;2022-09-12T08:04:17;24.50;51.70
38464;DHT22;24243;51.956;5.902;2022-09-12T08:06:42;24.40;51.90
38464;DHT22;24243;51.956;5.902;2022-09-12T08:09:08;24.20;52.20
38464;DHT22;24243;51.956;5.902;2022-09-12T08:11:33;24.10;52.50
38464;DHT22;24243;51.956;5.902;2022-09-12T08:13:59;23.90;52.70
38464;DHT22;24243;51.956;5.902;2022-09-12T08:16:28;23.90;52.80
38464;DHT22;24243;51.956;5.902;2022-09-12T08:18:54;24.00;52.80
38464;DHT22;24243;51.956;5.902;2022-09-12T08:21:20;24.00;52.80
38464;DHT22;24243;51.956;5.902;2022-09-12T08:23:46;24.10;52.70
38464;DHT22;24243;51.956;5.902;2022-09-12T08:26:15;24.20;52.70
38464;DHT22;24243;51.956;5.902;2022-09-12T08:28:42;24.30;52.50
38464;DHT22;24243;51.956;5.902;2022-09-12T08:31:10;24.30;53.00
38464;DHT22;24243;51.956;5.902;2022-09-12T08:33:36;24.50;52.20
38464;DHT22;24243;51.956;5.902;2022-09-12T08:36:06;24.60;52.10
38464;DHT22;24243;51.956;5.902;2022-09-12T08:38:33;24.50;52.00
38464;DHT22;24243;51.956;5.902;2022-09-12T08:41:01;24.50;52.10
38464;DHT22;24243;51.956;5.902;2022-09-12T08:43:40;24.50;52.20
38464;DHT22;24243;51.956;5.902;2022-09-12T08:46:08;24.50;52.30
38464;DHT22;24243;51.956;5.902;2022-09-12T08:48:35;24.50;52.40
38464;DHT22;24243;51.956;5.902;2022-09-12T08:51:02;24.50;52.40
38464;DHT22;24243;51.956;5.902;2022-09-12T08:53:29;24.60;52.40
38464;DHT22;24243;51.956;5.902;2022-09-12T08:55:56;24.60;52.30
38464;DHT22;24243;51.956;5.902;2022-09-12T08:58:23;24.60;52.30
38464;DHT22;24243;51.956;5.902;2022-09-12T09:00:53;24.60;52.40
38464;DHT22;24243;51.956;5.902;2022-09-12T09:03:40;24.60;52.50
38464;DHT22;24243;51.956;5.902;2022-09-12T09:11:12;24.60;52.90
38464;DHT22;24243;51.956;5.902;2022-09-12T09:16:40;24.60;53.00
38464;DHT22;24243;51.956;5.902;2022-09-12T09:19:14;24.60;53.20
38464;DHT22;24243;51.956;5.902;2022-09-12T09:21:43;24.60;53.20
38464;DHT22;24243;51.956;5.902;2022-09-12T09:24:11;24.60;53.20
38464;DHT22;24243;51.956;5.902;2022-09-12T09:26:42;24.70;53.20
38464;DHT22;24243;51.956;5.902;2022-09-12T09:31:38;24.80;53.20
38464;DHT22;24243;51.956;5.902;2022-09-12T09:34:17;24.70;53.20
38464;DHT22;24243;51.956;5.902;2022-09-12T09:44:27;24.90;53.30
38464;DHT22;24243;51.956;5.902;2022-09-12T09:46:53;24.90;53.30
38464;DHT22;24243;51.956;5.902;2022-09-12T09:49:19;24.90;53.30
38464;DHT22;24243;51.956;5.902;2022-09-12T09:51:47;24.90;53.30
38464;DHT22;24243;51.956;5.902;2022-09-12T09:56:41;25.00;53.30
38464;DHT22;24243;51.956;5.902;2022-09-12T09:59:29;25.10;53.30
38464;DHT22;24243;51.956;5.902;2022-09-12T10:01:53;25.20;53.30
38464;DHT22;24243;51.956;5.902;2022-09-12T10:04:21;25.20;53.20
38464;DHT22;24243;51.956;5.902;2022-09-12T10:06:47;25.30;53.20
38464;DHT22;24243;51.956;5.902;2022-09-12T10:09:16;25.30;53.10
38464;DHT22;24243;51.956;5.902;2022-09-12T10:11:42;25.40;53.10
38464;DHT22;24243;51.956;5.902;2022-09-12T10:16:50;25.40;53.00
38464;DHT22;24243;51.956;5.902;2022-09-12T10:19:22;25.50;53.00
38464;DHT22;24243;51.956;5.902;2022-09-12T10:21:51;25.50;52.90
38464;DHT22;24243;51.956;5.902;2022-09-12T10:24:22;25.50;52.80
38464;DHT22;24243;51.956;5.902;2022-09-12T10:26:50;25.50;52.70
38464;DHT22;24243;51.956;5.902;2022-09-12T10:29:18;25.60;52.60
38464;DHT22;24243;51.956;5.902;2022-09-12T10:31:51;25.60;52.50
38464;DHT22;24243;51.956;5.902;2022-09-12T10:34:34;25.70;52.50
38464;DHT22;24243;51.956;5.902;2022-09-12T10:37:04;25.70;52.40
38464;DHT22;24243;51.956;5.902;2022-09-12T10:39:31;25.80;52.30
38464;DHT22;24243;51.956;5.902;2022-09-12T10:41:58;25.80;52.30
38464;DHT22;24243;51.956;5.902;2022-09-12T10:44:28;25.80;52.20
38464;DHT22;24243;51.956;5.902;2022-09-12T10:46:55;25.80;52.10
38464;DHT22;24243;51.956;5.902;2022-09-12T10:51:47;25.90;52.00
38464;DHT22;24243;51.956;5.902;2022-09-12T10:54:14;25.90;51.80
38464;DHT22;24243;51.956;5.902;2022-09-12T10:56:47;26.00;51.70
38464;DHT22;24243;51.956;5.902;2022-09-12T10:59:20;26.00;51.60
38464;DHT22;24243;51.956;5.902;2022-09-12T11:20:20;26.20;51.20
38464;DHT22;24243;51.956;5.902;2022-09-12T11:22:59;26.20;51.10
38464;DHT22;24243;51.956;5.902;2022-09-12T11:25:27;26.30;51.20
38464;DHT22;24243;51.956;5.902;2022-09-12T11:30:26;26.30;51.00
38464;DHT22;24243;51.956;5.902;2022-09-12T11:35:30;26.30;50.90
38464;DHT22;24243;51.956;5.902;2022-09-12T11:40:35;26.40;50.90
38464;DHT22;24243;51.956;5.902;2022-09-12T11:43:05;26.40;50.80
38464;DHT22;24243;51.956;5.902;2022-09-12T11:45:35;26.40;50.80
38464;DHT22;24243;51.956;5.902;2022-09-12T11:48:05;26.40;50.70
38464;DHT22;24243;51.956;5.902;2022-09-12T11:50:32;26.40;50.60
38464;DHT22;24243;51.956;5.902;2022-09-12T11:53:05;26.40;50.60
38464;DHT22;24243;51.956;5.902;2022-09-12T11:55:43;26.40;50.50
38464;DHT22;24243;51.956;5.902;2022-09-12T11:58:09;26.40;50.50
38464;DHT22;24243;51.956;5.902;2022-09-12T12:00:40;26.40;50.50
38464;DHT22;24243;51.956;5.902;2022-09-12T12:05:46;26.50;50.40
38464;DHT22;24243;51.956;5.902;2022-09-12T12:08:16;26.50;50.40
38464;DHT22;24243;51.956;5.902;2022-09-12T12:10:46;26.50;50.30
38464;DHT22;24243;51.956;5.902;2022-09-12T12:15:39;26.50;50.30
38464;DHT22;24243;51.956;5.902;2022-09-12T12:18:17;26.50;50.20
38464;DHT22;24243;51.956;5.902;2022-09-12T12:20:43;26.50;50.20
38464;DHT22;24243;51.956;5.902;2022-09-12T12:28:54;26.50;50.10
38464;DHT22;24243;51.956;5.902;2022-09-12T12:31:01;26.50;50.10
38464;DHT22;24243;51.956;5.902;2022-09-12T12:38:25;26.50;50.00
38464;DHT22;24243;51.956;5.902;2022-09-12T12:40:52;26.50;49.90
38464;DHT22;24243;51.956;5.902;2022-09-12T12:43:27;26.50;49.90
38464;DHT22;24243;51.956;5.902;2022-09-12T12:46:04;26.50;49.80
38464;DHT22;24243;51.956;5.902;2022-09-12T12:48:31;26.50;49.70
38464;DHT22;24243;51.956;5.902;2022-09-12T12:51:14;26.50;49.70
38464;DHT22;24243;51.956;5.902;2022-09-12T12:53:41;26.50;49.70
38464;DHT22;24243;51.956;5.902;2022-09-12T12:56:21;26.50;49.70
38464;DHT22;24243;51.956;5.902;2022-09-12T12:58:51;26.40;49.60
38464;DHT22;24243;51.956;5.902;2022-09-12T13:01:21;26.50;49.70
38464;DHT22;24243;51.956;5.902;2022-09-12T13:04:00;26.40;49.60
38464;DHT22;24243;51.956;5.902;2022-09-12T13:06:31;26.40;49.50
38464;DHT22;24243;51.956;5.902;2022-09-12T13:11:38;26.40;49.60
38464;DHT22;24243;51.956;5.902;2022-09-12T13:14:06;26.40;49.50
38464;DHT22;24243;51.956;5.902;2022-09-12T13:19:03;26.40;49.50
38464;DHT22;24243;51.956;5.902;2022-09-12T13:21:29;26.40;49.50
38464;DHT22;24243;51.956;5.902;2022-09-12T13:24:10;26.40;49.50
38464;DHT22;24243;51.956;5.902;2022-09-12T13:26:41;26.40;49.50
38464;DHT22;24243;51.956;5.902;2022-09-12T13:31:40;26.40;49.50
38464;DHT22;24243;51.956;5.902;2022-09-12T13:34:06;26.30;49.40
38464;DHT22;24243;51.956;5.902;2022-09-12T13:42:37;26.20;49.40
38464;DHT22;24243;51.956;5.902;2022-09-12T13:45:44;26.20;49.50
38464;DHT22;24243;51.956;5.902;2022-09-12T13:47:57;26.20;49.50
38464;DHT22;24243;51.956;5.902;2022-09-12T13:50:25;26.20;49.50
38464;DHT22;24243;51.956;5.902;2022-09-12T13:52:52;26.20;49.60
38464;DHT22;24243;51.956;5.902;2022-09-12T13:55:26;26.10;49.50
38464;DHT22;24243;51.956;5.902;2022-09-12T13:58:35;26.10;49.50
38464;DHT22;24243;51.956;5.902;2022-09-12T14:00:42;26.10;49.50
38464;DHT22;24243;51.956;5.902;2022-09-12T14:03:23;26.10;49.50
38464;DHT22;24243;51.956;5.902;2022-09-12T14:06:07;26.10;49.50
38464;DHT22;24243;51.956;5.902;2022-09-12T14:08:33;26.10;49.50
38464;DHT22;24243;51.956;5.902;2022-09-12T14:10:59;26.10;49.50
38464;DHT22;24243;51.956;5.902;2022-09-12T14:13:25;26.00;49.50
38464;DHT22;24243;51.956;5.902;2022-09-12T14:15:51;26.00;49.50
38464;DHT22;24243;51.956;5.902;2022-09-12T14:18:25;26.00;49.50
38464;DHT22;24243;51.956;5.902;2022-09-12T14:20:52;26.00;49.50
38464;DHT22;24243;51.956;5.902;2022-09-12T14:23:28;26.00;49.50
38464;DHT22;24243;51.956;5.902;2022-09-12T14:25:54;25.90;49.40
38464;DHT22;24243;51.956;5.902;2022-09-12T14:28:20;25.90;49.40
38464;DHT22;24243;51.956;5.902;2022-09-12T14:30:56;25.90;49.40
38464;DHT22;24243;51.956;5.902;2022-09-12T14:33:22;25.90;49.40
38464;DHT22;24243;51.956;5.902;2022-09-12T14:35:51;25.90;49.30
38464;DHT22;24243;51.956;5.902;2022-09-12T14:38:20;25.90;49.30
38464;DHT22;24243;51.956;5.902;2022-09-12T14:40:47;25.90;49.30
38464;DHT22;24243;51.956;5.902;2022-09-12T14:43:20;25.90;49.30
38464;DHT22;24243;51.956;5.902;2022-09-12T14:45:53;25.90;49.20
38464;DHT22;24243;51.956;5.902;2022-09-12T14:48:20;25.90;49.20
38464;DHT22;24243;51.956;5.902;2022-09-12T14:50:49;25.90;49.10
38464;DHT22;24243;51.956;5.902;2022-09-12T14:55:51;25.90;49.10
38464;DHT22;24243;51.956;5.902;2022-09-12T14:58:22;25.90;49.10
38464;DHT22;24243;51.956;5.902;2022-09-12T15:00:53;25.80;49.10
38464;DHT22;24243;51.956;5.902;2022-09-12T15:03:22;25.90;49.10
38464;DHT22;24243;51.956;5.902;2022-09-12T15:05:49;25.90;49.10
38464;DHT22;24243;51.956;5.902;2022-09-12T15:08:15;25.80;49.00
38464;DHT22;24243;51.956;5.902;2022-09-12T15:10:40;25.80;49.00
38464;DHT22;24243;51.956;5.902;2022-09-12T15:15:35;25.80;49.00
38464;DHT22;24243;51.956;5.902;2022-09-12T15:18:01;25.80;49.00
38464;DHT22;24243;51.956;5.902;2022-09-12T15:20:27;25.80;49.00
38464;DHT22;24243;51.956;5.902;2022-09-12T15:22:52;25.70;49.00
38464;DHT22;24243;51.956;5.902;2022-09-12T15:25:18;25.80;49.10
38464;DHT22;24243;51.956;5.902;2022-09-12T15:27:44;25.80;49.00
38464;DHT22;24243;51.956;5.902;2022-09-12T15:30:10;25.70;49.00
38464;DHT22;24243;51.956;5.902;2022-09-12T15:32:37;25.70;48.90
38464;DHT22;24243;51.956;5.902;2022-09-12T15:35:08;25.70;49.00
38464;DHT22;24243;51.956;5.902;2022-09-12T15:37:35;25.70;48.90
38464;DHT22;24243;51.956;5.902;2022-09-12T15:40:00;25.70;49.00
38464;DHT22;24243;51.956;5.902;2022-09-12T15:42:29;25.70;49.00
38464;DHT22;24243;51.956;5.902;2022-09-12T15:44:55;25.70;49.00
38464;DHT22;24243;51.956;5.902;2022-09-12T15:47:21;25.70;49.00
38464;DHT22;24243;51.956;5.902;2022-09-12T15:49:47;25.70;49.10
38464;DHT22;24243;51.956;5.902;2022-09-12T15:52:14;25.70;49.10
38464;DHT22;24243;51.956;5.902;2022-09-12T15:54:40;25.70;49.10
38464;DHT22;24243;51.956;5.902;2022-09-12T15:57:06;25.70;49.20
38464;DHT22;24243;51.956;5.902;2022-09-12T15:59:32;25.70;49.20
38464;DHT22;24243;51.956;5.902;2022-09-12T16:01:57;25.70;49.20
38464;DHT22;24243;51.956;5.902;2022-09-12T16:04:24;25.70;49.20
38464;DHT22;24243;51.956;5.902;2022-09-12T16:06:50;25.70;49.20
38464;DHT22;24243;51.956;5.902;2022-09-12T16:09:16;25.70;49.20
38464;DHT22;24243;51.956;5.902;2022-09-12T16:11:42;25.70;49.30
38464;DHT22;24243;51.956;5.902;2022-09-12T16:14:08;25.70;49.20
38464;DHT22;24243;51.956;5.902;2022-09-12T16:16:34;25.70;49.20
38464;DHT22;24243;51.956;5.902;2022-09-12T16:19:00;25.70;49.20
38464;DHT22;24243;51.956;5.902;2022-09-12T16:21:25;25.70;49.20
38464;DHT22;24243;51.956;5.902;2022-09-12T16:23:51;25.70;49.10
38464;DHT22;24243;51.956;5.902;2022-09-12T16:26:17;25.70;49.00
38464;DHT22;24243;51.956;5.902;2022-09-12T16:28:43;25.80;49.00
38464;DHT22;24243;51.956;5.902;2022-09-12T16:31:09;25.80;48.90
38464;DHT22;24243;51.956;5.902;2022-09-12T16:33:36;25.70;48.70
38464;DHT22;24243;51.956;5.902;2022-09-12T16:36:09;25.80;48.70
38464;DHT22;24243;51.956;5.902;2022-09-12T16:38:41;25.80;48.70
38464;DHT22;24243;51.956;5.902;2022-09-12T16:41:07;25.80;48.70
38464;DHT22;24243;51.956;5.902;2022-09-12T16:43:34;25.80;48.70
38464;DHT22;24243;51.956;5.902;2022-09-12T16:46:06;25.70;48.70
38464;DHT22;24243;51.956;5.902;2022-09-12T16:48:32;25.80;48.70
38464;DHT22;24243;51.956;5.902;2022-09-12T16:50:58;25.70;48.70
38464;DHT22;24243;51.956;5.902;2022-09-12T16:53:29;25.80;48.70
38464;DHT22;24243;51.956;5.902;2022-09-12T16:55:55;25.70;48.70
38464;DHT22;24243;51.956;5.902;2022-09-12T16:58:21;25.70;48.70
38464;DHT22;24243;51.956;5.902;2022-09-12T17:00:46;25.70;49.30
38464;DHT22;24243;51.956;5.902;2022-09-12T17:03:12;25.70;48.70
38464;DHT22;24243;51.956;5.902;2022-09-12T17:05:38;25.70;48.70
38464;DHT22;24243;51.956;5.902;2022-09-12T17:08:03;25.70;48.70
38464;DHT22;24243;51.956;5.902;2022-09-12T17:10:29;25.70;48.70
38464;DHT22;24243;51.956;5.902;2022-09-12T17:12:55;25.60;48.60
38464;DHT22;24243;51.956;5.902;2022-09-12T17:15:22;25.60;48.60
38464;DHT22;24243;51.956;5.902;2022-09-12T17:17:48;25.60;48.80
38464;DHT22;24243;51.956;5.902;2022-09-12T17:20:13;25.60;48.80
38464;DHT22;24243;51.956;5.902;2022-09-12T17:22:39;25.50;48.70
38464;DHT22;24243;51.956;5.902;2022-09-12T17:25:04;25.50;48.80
38464;DHT22;24243;51.956;5.902;2022-09-12T17:27:30;25.50;48.90
38464;DHT22;24243;51.956;5.902;2022-09-12T17:29:56;25.50;49.00
38464;DHT22;24243;51.956;5.902;2022-09-12T17:32:21;25.50;49.00
38464;DHT22;24243;51.956;5.902;2022-09-12T17:34:47;25.50;49.10
38464;DHT22;24243;51.956;5.902;2022-09-12T17:37:13;25.40;49.00
38464;DHT22;24243;51.956;5.902;2022-09-12T17:39:38;25.40;49.10
38464;DHT22;24243;51.956;5.902;2022-09-12T17:42:04;25.40;49.20
38464;DHT22;24243;51.956;5.902;2022-09-12T17:44:30;25.40;49.20
38464;DHT22;24243;51.956;5.902;2022-09-12T17:46:57;25.40;49.30
38464;DHT22;24243;51.956;5.902;2022-09-12T17:49:23;25.30;49.30